mardi 22 mars 2011

Actualité > Fukushima : quand le vent tourne, la radioactivité aussi

lecture des messages

Aviation Digital Data Service (ADDS)

Output produced by METARs form (1909 UTC 22 March 2011)
 
Décodage
     
METAR text:
RJTT 221900Z 03007KT 010V070 9999 -RA FEW007 SCT010 BKN040 07/05 Q1011 BECMG 34020KT



Conditions at:



RJTT (TOKYO INTL AIRPO, JP) observed 1900 UTC 22 March 2011
Temperature:7.0°C (45°F)
Dewpoint:5.0°C (41°F) [RH = 87%]
Pressure (altimeter):29.85 inches Hg (1011.0 mb)
Winds:from the NNE (30 degrees) at 8 MPH (7 knots; 3.6 m/s)
Visibility:6 or more miles (10+ km)

Weather:-RA  (light rain)




Aviation Digital Data Service (ADDS)

Output produced by METARs form (1433 UTC 22 March 2011)
found at http://aviationweather.gov/adds/metars/index.php
RJTT 22 14heure 00 TU


030 degrés
08KT ... 8 noeuds



 9999 FEW005 BKN009 BKN020 07/05 Q1011 BECMG FM1500 FEW005 SCT012 BKN020


RJTT 221321Z 2213/2312 04008KT 9999 -RA SCT012 BKN050 
     TEMPO 2213/2216 4000 -RA BR FEW005 BKN009 
     BECMG 2216/2218 34016KT 
     TEMPO 2218/2221 34024G36KT
        
*****************************************

RJTT  Tokyo airport

22 10 00Z  22 ce jour 10 oo TU

080 degrés nord
08 noeuds  12 Kmh

buletin aviation initial

 08008KT 9999 FEW010 BKN020 08/05 Q1011 BECMG FM1100 05008KT RMK 1ST010 7SC020 A2987


Enregistrer un commentaire